createdAt,value
2023-04-02T00:00:20.440Z,100777.00
2023-04-02T00:03:03.864Z,100769.00
2023-04-02T00:05:51.878Z,100779.00
2023-04-02T00:08:41.091Z,100790.00
2023-04-02T00:11:10.701Z,100784.00
2023-04-02T00:13:46.687Z,100788.00
2023-04-02T00:16:24.370Z,100784.00
2023-04-02T00:18:59.242Z,100786.00
2023-04-02T00:21:33.411Z,100793.00
2023-04-02T00:24:08.192Z,100797.00
2023-04-02T00:26:44.161Z,100797.00
2023-04-02T00:29:15.738Z,100795.00
2023-04-02T00:31:49.070Z,100795.00
2023-04-02T00:34:23.556Z,100792.00
2023-04-02T00:36:55.027Z,100801.00
2023-04-02T00:39:27.294Z,100809.00
2023-04-02T00:42:05.253Z,100814.00
2023-04-02T00:44:38.709Z,100810.00
2023-04-02T00:47:20.276Z,100815.00
2023-04-02T00:49:55.460Z,100827.00
2023-04-02T00:52:30.644Z,100825.00
2023-04-02T00:55:07.834Z,100830.00
2023-04-02T00:57:37.349Z,100824.00
2023-04-02T01:00:23.006Z,100836.00
2023-04-02T01:03:30.082Z,100830.00
2023-04-02T01:06:03.270Z,100846.00
2023-04-02T01:08:53.401Z,100847.00
2023-04-02T01:11:43.640Z,100849.00
2023-04-02T01:14:26.244Z,100846.00
2023-04-02T01:17:06.110Z,100859.00
2023-04-02T01:20:13.842Z,100849.00
2023-04-02T01:22:52.942Z,100853.00
2023-04-02T01:25:31.481Z,100856.00
2023-04-02T01:28:11.255Z,100873.00
2023-04-02T01:30:42.511Z,100868.00
2023-04-02T01:33:13.218Z,100872.00
2023-04-02T01:35:51.425Z,100872.00
2023-04-02T01:38:27.422Z,100863.00
2023-04-02T01:41:03.519Z,100867.00
2023-04-02T01:43:44.149Z,100876.00
2023-04-02T01:46:30.331Z,100880.00
2023-04-02T01:49:05.059Z,100886.00
2023-04-02T01:51:36.299Z,100888.00
2023-04-02T01:54:08.864Z,100883.00
2023-04-02T01:56:38.368Z,100898.00
2023-04-02T01:59:11.341Z,100890.00
2023-04-02T02:01:49.517Z,100914.00
2023-04-02T02:04:19.795Z,100904.00
2023-04-02T02:06:49.249Z,100908.00
2023-04-02T02:09:26.642Z,100915.00
2023-04-02T02:11:55.481Z,100918.00
2023-04-02T02:14:27.617Z,100915.00
2023-04-02T02:17:24.221Z,100925.00
2023-04-02T02:19:57.126Z,100921.00
2023-04-02T02:22:32.049Z,100918.00
2023-04-02T02:25:05.502Z,100925.00
2023-04-02T02:27:56.890Z,100919.00
2023-04-02T02:30:31.552Z,100932.00
2023-04-02T02:33:10.131Z,100936.00
2023-04-02T02:35:48.280Z,100929.00
2023-04-02T02:38:54.211Z,100942.00
2023-04-02T02:41:44.279Z,100931.00
2023-04-02T02:44:20.817Z,100946.00
2023-04-02T02:46:55.729Z,100947.00
2023-04-02T02:49:29.904Z,100952.00
2023-04-02T02:52:05.440Z,100952.00
2023-04-02T02:54:49.194Z,100954.00
2023-04-02T02:57:26.277Z,100956.00
2023-04-02T02:59:59.215Z,100958.00
2023-04-02T03:02:30.510Z,100964.00
2023-04-02T03:05:02.936Z,100967.00
2023-04-02T03:07:33.580Z,100975.00
2023-04-02T03:10:14.496Z,100974.00
2023-04-02T03:12:51.424Z,100981.00
2023-04-02T03:15:29.815Z,100972.00
2023-04-02T03:18:04.768Z,100977.00
2023-04-02T03:20:46.791Z,100985.00
2023-04-02T03:23:25.131Z,100981.00
2023-04-02T03:26:03.141Z,100989.00
2023-04-02T03:28:38.465Z,100994.00
2023-04-02T03:31:11.411Z,101000.00
2023-04-02T03:33:45.682Z,100988.00
2023-04-02T03:36:24.465Z,100996.00
2023-04-02T03:39:02.413Z,101000.00
2023-04-02T03:41:40.504Z,100996.00
2023-04-02T03:44:22.848Z,101004.00
2023-04-02T03:46:58.902Z,101005.00
2023-04-02T03:49:38.875Z,101009.00
2023-04-02T03:52:14.619Z,101006.00
2023-04-02T03:54:53.901Z,101013.00
2023-04-02T03:57:32.394Z,101020.00
2023-04-02T04:00:09.353Z,101015.00
2023-04-02T04:02:48.880Z,101022.00
2023-04-02T04:05:29.882Z,101020.00
2023-04-02T04:08:07.840Z,101028.00
2023-04-02T04:10:37.305Z,101041.00
2023-04-02T04:13:14.563Z,101041.00
2023-04-02T04:15:52.539Z,101038.00
2023-04-02T04:18:34.938Z,101033.00
2023-04-02T04:21:22.888Z,101040.00
2023-04-02T04:23:53.511Z,101036.00
2023-04-02T04:26:34.981Z,101048.00
2023-04-02T04:29:19.652Z,101055.00
2023-04-02T04:31:55.839Z,101053.00
2023-04-02T04:34:42.355Z,101057.00
2023-04-02T04:37:25.277Z,101056.00
2023-04-02T04:40:05.381Z,101058.00
2023-04-02T04:42:38.871Z,101058.00
2023-04-02T04:45:31.605Z,101066.00
2023-04-02T04:48:06.521Z,101069.00
2023-04-02T04:50:42.357Z,101083.00
2023-04-02T04:53:21.088Z,101068.00
2023-04-02T04:55:59.699Z,101072.00
2023-04-02T04:58:48.966Z,101079.00
2023-04-02T05:01:25.588Z,101080.00
2023-04-02T05:04:04.954Z,101091.00
2023-04-02T05:06:43.932Z,101099.00
2023-04-02T05:09:23.956Z,101084.00
2023-04-02T05:12:07.198Z,101093.00
2023-04-02T05:14:43.636Z,101090.00
2023-04-02T05:17:20.842Z,101112.00
2023-04-02T05:19:58.014Z,101107.00
2023-04-02T05:22:35.913Z,101109.00
2023-04-02T05:25:21.163Z,101120.00
2023-04-02T05:28:00.102Z,101114.00
2023-04-02T05:30:49.516Z,101125.00
2023-04-02T05:33:28.277Z,101133.00
2023-04-02T05:36:04.598Z,101127.00
2023-04-02T05:38:41.643Z,101142.00
2023-04-02T05:41:26.967Z,101140.00
2023-04-02T05:44:08.487Z,101134.00
2023-04-02T05:46:46.915Z,101139.00
2023-04-02T05:49:25.042Z,101147.00
2023-04-02T05:52:01.668Z,101156.00
2023-04-02T05:54:39.398Z,101145.00
2023-04-02T05:57:14.988Z,101147.00
2023-04-02T05:59:52.842Z,101160.00
2023-04-02T06:02:30.948Z,101161.00
2023-04-02T06:05:04.324Z,101156.00
2023-04-02T06:07:47.690Z,101157.00
2023-04-02T06:10:24.966Z,101170.00
2023-04-02T06:13:03.454Z,101165.00
2023-04-02T06:15:39.181Z,101157.00
2023-04-02T06:18:20.431Z,101161.00
2023-04-02T06:20:51.115Z,101178.00
2023-04-02T06:23:31.052Z,101177.00
2023-04-02T06:26:09.070Z,101179.00
2023-04-02T06:28:47.837Z,101184.00
2023-04-02T06:31:33.926Z,101180.00
2023-04-02T06:34:08.091Z,101179.00
2023-04-02T06:36:36.969Z,101188.00
2023-04-02T06:39:18.362Z,101186.00
2023-04-02T06:41:47.874Z,101193.00
2023-04-02T06:44:43.006Z,101194.00
2023-04-02T06:47:48.110Z,101186.00
2023-04-02T06:50:32.432Z,101216.00
2023-04-02T06:53:12.069Z,101210.00
2023-04-02T06:55:48.031Z,101211.00
2023-04-02T06:58:21.553Z,101202.00
2023-04-02T07:00:53.106Z,101198.00
2023-04-02T07:03:35.640Z,101213.00
2023-04-02T07:06:21.736Z,101219.00
2023-04-02T07:08:52.719Z,101209.00
2023-04-02T07:11:24.259Z,101213.00
2023-04-02T07:13:55.852Z,101228.00
2023-04-02T07:16:28.077Z,101232.00
2023-04-02T07:18:59.996Z,101222.00
2023-04-02T07:21:33.045Z,101233.00
2023-04-02T07:24:03.713Z,101230.00
2023-04-02T07:26:33.454Z,101245.00
2023-04-02T07:29:02.619Z,101243.00
2023-04-02T07:31:32.167Z,101242.00
2023-04-02T07:34:03.118Z,101250.00
2023-04-02T07:36:35.530Z,101263.00
2023-04-02T07:39:06.139Z,101276.00
2023-04-02T07:41:35.358Z,101259.00
2023-04-02T07:44:06.504Z,101258.00
2023-04-02T07:46:37.787Z,101275.00
2023-04-02T07:49:09.149Z,101292.00
2023-04-02T07:51:38.331Z,101277.00
2023-04-02T07:54:10.113Z,101271.00
2023-04-02T07:56:44.595Z,101283.00
2023-04-02T07:59:24.011Z,101285.00
2023-04-02T08:01:59.295Z,101279.00
2023-04-02T08:04:30.507Z,101284.00
2023-04-02T08:06:59.712Z,101292.00
2023-04-02T08:09:29.301Z,101283.00
2023-04-02T08:11:58.251Z,101294.00
2023-04-02T08:14:27.003Z,101299.00
2023-04-02T08:16:57.566Z,101307.00
2023-04-02T08:19:30.114Z,101301.00
2023-04-02T08:22:00.233Z,101309.00
2023-04-02T08:24:30.800Z,101301.00
2023-04-02T08:27:02.490Z,101309.00
2023-04-02T08:29:32.469Z,101321.00
2023-04-02T08:32:01.537Z,101314.00
2023-04-02T08:34:30.496Z,101310.00
2023-04-02T08:37:00.936Z,101307.00
2023-04-02T08:39:33.131Z,101324.00
2023-04-02T08:42:15.868Z,101312.00
2023-04-02T08:44:56.362Z,101314.00
2023-04-02T08:47:29.943Z,101326.00
2023-04-02T08:50:06.564Z,101324.00
2023-04-02T08:52:40.208Z,101338.00
2023-04-02T08:55:27.053Z,101328.00
2023-04-02T08:58:04.468Z,101340.00
2023-04-02T09:00:40.176Z,101347.00
2023-04-02T09:03:18.958Z,101337.00
2023-04-02T09:05:50.960Z,101333.00
2023-04-02T09:08:24.663Z,101345.00
2023-04-02T09:11:01.684Z,101346.00
2023-04-02T09:13:34.291Z,101360.00
2023-04-02T09:16:13.031Z,101355.00
2023-04-02T09:18:42.581Z,101360.00
2023-04-02T09:21:36.019Z,101365.00
2023-04-02T09:24:06.573Z,101377.00
2023-04-02T09:26:36.990Z,101365.00
2023-04-02T09:29:41.120Z,101378.00
2023-04-02T09:32:29.655Z,101377.00
2023-04-02T09:35:22.984Z,101381.00
2023-04-02T09:38:29.133Z,101390.00
2023-04-02T09:41:03.781Z,101404.00
2023-04-02T09:43:35.499Z,101393.00
2023-04-02T09:46:18.422Z,101397.00
2023-04-02T09:48:55.397Z,101406.00
2023-04-02T09:51:27.933Z,101404.00
2023-04-02T09:54:14.144Z,101414.00
2023-04-02T09:57:02.250Z,101414.00
2023-04-02T09:59:31.127Z,101419.00
2023-04-02T10:02:04.606Z,101416.00
2023-04-02T10:04:38.908Z,101415.00
2023-04-02T10:07:08.353Z,101418.00
2023-04-02T10:09:39.711Z,101422.00
2023-04-02T10:12:16.403Z,101430.00
2023-04-02T10:14:49.730Z,101429.00
2023-04-02T10:17:24.451Z,101430.00
2023-04-02T10:20:00.055Z,101440.00
2023-04-02T10:22:30.064Z,101444.00
2023-04-02T10:25:00.739Z,101444.00
2023-04-02T10:27:42.674Z,101436.00
2023-04-02T10:30:23.205Z,101435.00
2023-04-02T10:32:58.759Z,101427.00
2023-04-02T10:35:43.635Z,101456.00
2023-04-02T10:38:43.064Z,101442.00
2023-04-02T10:41:28.146Z,101437.00
2023-04-02T10:44:22.442Z,101444.00
2023-04-02T10:47:16.768Z,101445.00
2023-04-02T10:49:55.762Z,101454.00
2023-04-02T10:52:31.923Z,101474.00
2023-04-02T10:55:07.415Z,101449.00
2023-04-02T10:57:40.755Z,101474.00
2023-04-02T11:00:24.098Z,101471.00
2023-04-02T11:03:00.230Z,101480.00
2023-04-02T11:05:40.326Z,101475.00
2023-04-02T11:08:20.121Z,101485.00
2023-04-02T11:10:56.906Z,101500.00
2023-04-02T11:13:34.935Z,101499.00
2023-04-02T11:16:08.456Z,101494.00
2023-04-02T11:18:37.574Z,101514.00
2023-04-02T11:21:08.985Z,101524.00
2023-04-02T11:23:59.655Z,101531.00
2023-04-02T11:26:39.402Z,101519.00
2023-04-02T11:29:20.216Z,101520.00
2023-04-02T11:32:12.417Z,101531.00
2023-04-02T11:35:27.444Z,101539.00
2023-04-02T11:37:58.344Z,101537.00
2023-04-02T11:40:51.497Z,101534.00
2023-04-02T11:43:53.245Z,101548.00
2023-04-02T11:46:46.536Z,101544.00
2023-04-02T11:50:14.070Z,101538.00
2023-04-02T11:52:59.802Z,101537.00
2023-04-02T11:55:33.475Z,101551.00
2023-04-02T11:58:45.027Z,101546.00
2023-04-02T12:02:18.774Z,101550.00
2023-04-02T12:05:25.327Z,101540.00
2023-04-02T12:08:23.409Z,101555.00
2023-04-02T12:10:59.828Z,101559.00
2023-04-02T12:14:10.516Z,101562.00
2023-04-02T12:16:40.239Z,101558.00
2023-04-02T12:19:10.964Z,101566.00
2023-04-02T12:21:40.058Z,101569.00
2023-04-02T12:24:23.206Z,101582.00
2023-04-02T12:27:15.671Z,101578.00
2023-04-02T12:29:45.051Z,101579.00
2023-04-02T12:32:26.632Z,101582.00
2023-04-02T12:34:58.971Z,101584.00
2023-04-02T12:37:30.819Z,101605.00
2023-04-02T12:40:07.278Z,101598.00
2023-04-02T12:42:39.045Z,101582.00
2023-04-02T12:45:08.965Z,101595.00
2023-04-02T12:47:37.770Z,101589.00
2023-04-02T12:50:15.046Z,101595.00
2023-04-02T12:52:48.142Z,101601.00
2023-04-02T12:55:22.068Z,101614.00
2023-04-02T12:57:55.867Z,101599.00
2023-04-02T13:00:36.754Z,101607.00
2023-04-02T13:03:26.609Z,101601.00
2023-04-02T13:05:58.720Z,101599.00
2023-04-02T13:08:33.210Z,101604.00
2023-04-02T13:11:06.488Z,101615.00
2023-04-02T13:13:38.346Z,101605.00
2023-04-02T13:16:26.238Z,101605.00
2023-04-02T13:19:13.813Z,101608.00
2023-04-02T13:21:42.861Z,101605.00
2023-04-02T13:24:19.269Z,101621.00
2023-04-02T13:26:50.516Z,101624.00
2023-04-02T13:29:27.603Z,101606.00
2023-04-02T13:32:01.303Z,101609.00
2023-04-02T13:34:34.058Z,101618.00
2023-04-02T13:37:02.749Z,101619.00
2023-04-02T13:39:31.613Z,101621.00
2023-04-02T13:42:06.592Z,101635.00
2023-04-02T13:44:37.614Z,101617.00
2023-04-02T13:47:06.455Z,101624.00
2023-04-02T13:49:35.324Z,101638.00
2023-04-02T13:52:05.417Z,101640.00
2023-04-02T13:54:44.652Z,101641.00
2023-04-02T13:57:15.794Z,101648.00
2023-04-02T13:59:44.545Z,101629.00
2023-04-02T14:02:18.969Z,101641.00
2023-04-02T14:04:54.726Z,101640.00
2023-04-02T14:07:45.275Z,101641.00
2023-04-02T14:10:27.849Z,101645.00
2023-04-02T14:13:19.839Z,101638.00
2023-04-02T14:16:13.567Z,101646.00
2023-04-02T14:19:04.379Z,101662.00
2023-04-02T14:21:48.329Z,101653.00
2023-04-02T14:24:23.630Z,101656.00
2023-04-02T14:27:08.301Z,101674.00
2023-04-02T14:29:49.714Z,101656.00
2023-04-02T14:32:27.219Z,101663.00
2023-04-02T14:35:08.659Z,101673.00
2023-04-02T14:37:47.410Z,101677.00
2023-04-02T14:40:25.839Z,101688.00
2023-04-02T14:43:01.948Z,101684.00
2023-04-02T14:45:49.488Z,101705.00
2023-04-02T14:48:36.637Z,101682.00
2023-04-02T14:51:15.302Z,101687.00
2023-04-02T14:54:00.432Z,101683.00
2023-04-02T14:56:32.441Z,101683.00
2023-04-02T14:59:20.976Z,101687.00
2023-04-02T15:01:56.597Z,101691.00
2023-04-02T15:04:35.034Z,101683.00
2023-04-02T15:07:14.854Z,101683.00
2023-04-02T15:09:48.755Z,101702.00
2023-04-02T15:12:25.095Z,101708.00
2023-04-02T15:15:03.570Z,101698.00
2023-04-02T15:17:34.282Z,101723.00
2023-04-02T15:20:16.091Z,101705.00
2023-04-02T15:23:02.005Z,101712.00
2023-04-02T15:25:43.844Z,101716.00
2023-04-02T15:28:28.003Z,101710.00
2023-04-02T15:31:01.225Z,101708.00
2023-04-02T15:33:46.146Z,101715.00
2023-04-02T15:37:14.348Z,101716.00
2023-04-02T15:39:54.809Z,101746.00
2023-04-02T15:42:29.076Z,101728.00
2023-04-02T15:45:22.312Z,101743.00
2023-04-02T15:48:27.646Z,101737.00
2023-04-02T15:51:06.378Z,101737.00
2023-04-02T15:53:51.961Z,101741.00
2023-04-02T15:56:46.571Z,101760.00
2023-04-02T15:59:47.536Z,101749.00
2023-04-02T16:02:40.727Z,101730.00
2023-04-02T16:05:23.122Z,101748.00
2023-04-02T16:08:19.166Z,101750.00
2023-04-02T16:10:48.053Z,101741.00
2023-04-02T16:13:32.667Z,101749.00
2023-04-02T16:16:08.486Z,101743.00
2023-04-02T16:18:51.870Z,101755.00
2023-04-02T16:21:24.778Z,101763.00
2023-04-02T16:23:55.225Z,101759.00
2023-04-02T16:26:37.967Z,101759.00
2023-04-02T16:29:32.009Z,101772.00
2023-04-02T16:32:21.231Z,101770.00
2023-04-02T16:35:22.208Z,101779.00
2023-04-02T16:38:04.402Z,101766.00
2023-04-02T16:40:57.115Z,101769.00
2023-04-02T16:43:38.656Z,101773.00
2023-04-02T16:46:22.554Z,101777.00
2023-04-02T16:49:04.293Z,101773.00
2023-04-02T16:51:46.578Z,101783.00
2023-04-02T16:54:23.810Z,101779.00
2023-04-02T16:57:31.584Z,101786.00
2023-04-02T17:00:19.069Z,101787.00
2023-04-02T17:03:05.182Z,101779.00
2023-04-02T17:05:51.822Z,101797.00
2023-04-02T17:08:26.116Z,101787.00
2023-04-02T17:11:02.629Z,101803.00
2023-04-02T17:13:41.661Z,101789.00
2023-04-02T17:16:21.879Z,101812.00
2023-04-02T17:18:54.369Z,101811.00
2023-04-02T17:21:28.035Z,101801.00
2023-04-02T17:24:05.655Z,101804.00
2023-04-02T17:26:39.082Z,101804.00
2023-04-02T17:29:27.976Z,101823.00
2023-04-02T17:32:13.395Z,101819.00
2023-04-02T17:34:44.024Z,101817.00
2023-04-02T17:37:31.005Z,101811.00
2023-04-02T17:40:20.048Z,101823.00
2023-04-02T17:43:03.356Z,101818.00
2023-04-02T17:45:42.997Z,101807.00
2023-04-02T17:48:22.076Z,101814.00
2023-04-02T17:51:05.560Z,101827.00
2023-04-02T17:53:47.184Z,101820.00
2023-04-02T17:56:32.594Z,101821.00
2023-04-02T17:59:32.167Z,101830.00
2023-04-02T18:02:24.442Z,101840.00
2023-04-02T18:05:07.784Z,101826.00
2023-04-02T18:07:48.745Z,101834.00
2023-04-02T18:10:28.317Z,101827.00
2023-04-02T18:13:03.217Z,101836.00
2023-04-02T18:15:55.666Z,101837.00
2023-04-02T18:18:55.103Z,101836.00
2023-04-02T18:21:32.928Z,101845.00
2023-04-02T18:24:28.692Z,101847.00
2023-04-02T18:27:21.561Z,101842.00
2023-04-02T18:30:11.997Z,101845.00
2023-04-02T18:33:32.250Z,101840.00
2023-04-02T18:36:11.671Z,101836.00
2023-04-02T18:38:49.025Z,101837.00
2023-04-02T18:41:44.042Z,101843.00
2023-04-02T18:44:38.751Z,101850.00
2023-04-02T18:47:20.613Z,101849.00
2023-04-02T18:49:57.876Z,101853.00
2023-04-02T18:52:26.683Z,101852.00
2023-04-02T18:55:05.585Z,101846.00
2023-04-02T18:57:39.204Z,101837.00
2023-04-02T19:00:26.693Z,101844.00
2023-04-02T19:03:01.430Z,101851.00
2023-04-02T19:05:40.787Z,101846.00
2023-04-02T19:08:18.474Z,101841.00
2023-04-02T19:10:52.210Z,101841.00
2023-04-02T19:13:22.077Z,101844.00
2023-04-02T19:16:37.397Z,101849.00
2023-04-02T19:19:18.695Z,101839.00
2023-04-02T19:22:09.077Z,101841.00
2023-04-02T19:25:04.050Z,101837.00
2023-04-02T19:27:53.282Z,101842.00
2023-04-02T19:30:53.928Z,101841.00
2023-04-02T19:33:38.618Z,101838.00
2023-04-02T19:36:35.977Z,101843.00
2023-04-02T19:39:33.107Z,101838.00
2023-04-02T19:42:13.190Z,101842.00
2023-04-02T19:44:49.604Z,101841.00
2023-04-02T19:47:19.747Z,101843.00
2023-04-02T19:49:49.678Z,101838.00
2023-04-02T19:52:19.493Z,101839.00
2023-04-02T19:54:49.464Z,101847.00
2023-04-02T19:57:18.560Z,101837.00
2023-04-02T19:59:47.572Z,101841.00
2023-04-02T20:02:16.362Z,101845.00
2023-04-02T20:04:45.032Z,101843.00
2023-04-02T20:07:13.741Z,101835.00
2023-04-02T20:09:42.636Z,101852.00
2023-04-02T20:12:14.277Z,101848.00
2023-04-02T20:14:42.903Z,101855.00
2023-04-02T20:17:11.737Z,101844.00
2023-04-02T20:19:40.853Z,101849.00
2023-04-02T20:22:09.632Z,101840.00
2023-04-02T20:24:38.301Z,101863.00
2023-04-02T20:27:06.963Z,101844.00
2023-04-02T20:29:37.043Z,101848.00
2023-04-02T20:32:05.847Z,101850.00
2023-04-02T20:34:34.615Z,101860.00
2023-04-02T20:37:03.488Z,101855.00
2023-04-02T20:39:32.113Z,101852.00
2023-04-02T20:42:02.969Z,101862.00
2023-04-02T20:44:31.973Z,101861.00
2023-04-02T20:47:04.475Z,101870.00
2023-04-02T20:49:33.230Z,101859.00
2023-04-02T20:52:02.036Z,101857.00
2023-04-02T20:54:30.652Z,101854.00
2023-04-02T20:56:59.369Z,101861.00
2023-04-02T20:59:27.949Z,101854.00
2023-04-02T21:01:56.746Z,101844.00
2023-04-02T21:04:28.386Z,101858.00
2023-04-02T21:06:57.618Z,101847.00
2023-04-02T21:09:26.283Z,101856.00
2023-04-02T21:11:55.064Z,101846.00
2023-04-02T21:14:24.059Z,101850.00
2023-04-02T21:16:52.682Z,101850.00
2023-04-02T21:19:21.252Z,101851.00
2023-04-02T21:21:51.198Z,101856.00
2023-04-02T21:24:19.793Z,101849.00
2023-04-02T21:26:48.827Z,101869.00
2023-04-02T21:29:17.643Z,101861.00
2023-04-02T21:31:46.393Z,101874.00
2023-04-02T21:34:17.441Z,101865.00
2023-04-02T21:36:48.115Z,101870.00
2023-04-02T21:39:21.249Z,101883.00
2023-04-02T21:41:53.106Z,101882.00
2023-04-02T21:44:24.291Z,101884.00
2023-04-02T21:46:54.208Z,101872.00
2023-04-02T21:49:26.163Z,101871.00
2023-04-02T21:51:55.005Z,101882.00
2023-04-02T21:54:25.093Z,101890.00
2023-04-02T21:56:53.788Z,101858.00
2023-04-02T21:59:22.537Z,101878.00
2023-04-02T22:01:53.447Z,101881.00
2023-04-02T22:04:24.168Z,101890.00
2023-04-02T22:06:54.422Z,101879.00
2023-04-02T22:09:27.646Z,101886.00
2023-04-02T22:11:59.874Z,101888.00
2023-04-02T22:14:29.446Z,101883.00
2023-04-02T22:16:58.791Z,101873.00
2023-04-02T22:19:28.394Z,101883.00
2023-04-02T22:21:57.544Z,101869.00
2023-04-02T22:24:27.561Z,101883.00
2023-04-02T22:26:56.671Z,101882.00
2023-04-02T22:29:25.459Z,101879.00
2023-04-02T22:31:54.081Z,101890.00
2023-04-02T22:34:22.763Z,101886.00
2023-04-02T22:36:53.118Z,101877.00
2023-04-02T22:39:21.806Z,101881.00
2023-04-02T22:41:51.745Z,101904.00
2023-04-02T22:44:20.375Z,101877.00
2023-04-02T22:46:49.035Z,101872.00
2023-04-02T22:49:19.335Z,101883.00
2023-04-02T22:51:48.381Z,101870.00
2023-04-02T22:54:17.238Z,101881.00
2023-04-02T22:56:45.919Z,101888.00
2023-04-02T22:59:16.245Z,101869.00
2023-04-02T23:01:45.067Z,101862.00
2023-04-02T23:04:13.786Z,101885.00
2023-04-02T23:06:42.505Z,101884.00
2023-04-02T23:09:11.490Z,101881.00
2023-04-02T23:11:40.052Z,101890.00
2023-04-02T23:14:08.687Z,101893.00
2023-04-02T23:16:38.814Z,101880.00
2023-04-02T23:19:07.446Z,101892.00
2023-04-02T23:21:36.257Z,101895.00
2023-04-02T23:24:05.137Z,101899.00
2023-04-02T23:26:34.143Z,101909.00
2023-04-02T23:29:03.095Z,101892.00
2023-04-02T23:31:33.724Z,101918.00
2023-04-02T23:34:04.399Z,101910.00
2023-04-02T23:36:35.943Z,101892.00
2023-04-02T23:39:09.450Z,101898.00
2023-04-02T23:41:39.919Z,101904.00
2023-04-02T23:44:09.564Z,101887.00
2023-04-02T23:46:38.732Z,101893.00
2023-04-02T23:49:11.443Z,101913.00
2023-04-02T23:51:40.805Z,101910.00
2023-04-02T23:54:09.491Z,101898.00
2023-04-02T23:56:38.145Z,101927.00
2023-04-02T23:59:06.977Z,101889.00
